Overijse, Belgium
Current Conditions -  °F | °C
As of 11:50 PM on Saturday 20 Dec 2014 (Local Time) from EBBR Reporting Station
Clear Clear  
Wind Chill:   Ceiling: Unl
Heat Index:   Visibility: 6mi
Dew Point:   Wind: 8mph
Humidity: 81%   Direction: 260°W
Pressure: 30.39"   Gusts: NA
Location:  50.77°N, 4.53°E
Report Text: EBBR 202250Z 26007KT CAVOK 05/02 Q1029 NOSIG
Loading
Personal Weather Stations






























Interactive Weather Map New forecast layout! Learn more

10-Day Weather Forecast

Advertisements
Track Severe Weather on mobile